createdAt,value
2018-04-08T00:02:20.824Z,14.42
2018-04-08T00:04:50.723Z,14.36
2018-04-08T00:07:19.781Z,14.31
2018-04-08T00:09:48.761Z,14.28
2018-04-08T00:12:18.951Z,14.29
2018-04-08T00:14:48.798Z,14.35
2018-04-08T00:19:52.171Z,14.47
2018-04-08T00:22:21.273Z,14.52
2018-04-08T00:24:50.231Z,14.52
2018-04-08T00:27:19.082Z,14.51
2018-04-08T00:29:48.250Z,14.52
2018-04-08T00:32:18.272Z,14.46
2018-04-08T00:34:48.390Z,14.54
2018-04-08T00:37:17.691Z,14.41
2018-04-08T00:39:49.657Z,14.30
2018-04-08T00:42:20.494Z,14.20
2018-04-08T00:44:50.541Z,14.03
2018-04-08T00:47:19.554Z,13.97
2018-04-08T00:49:49.424Z,14.00
2018-04-08T00:54:55.118Z,14.15
2018-04-08T00:57:24.870Z,14.17
2018-04-08T00:59:55.122Z,14.17
2018-04-08T01:02:23.808Z,14.28
2018-04-08T01:04:53.397Z,14.32
2018-04-08T01:07:23.764Z,14.36
2018-04-08T01:09:52.735Z,14.45
2018-04-08T01:12:22.544Z,14.45
2018-04-08T01:14:51.520Z,14.55
2018-04-08T01:17:21.069Z,14.50
2018-04-08T01:19:50.122Z,14.47
2018-04-08T01:22:20.965Z,14.39
2018-04-08T01:24:51.587Z,14.36
2018-04-08T01:27:21.397Z,14.29
2018-04-08T01:29:50.388Z,14.23
2018-04-08T01:32:19.418Z,14.17
2018-04-08T01:34:49.482Z,14.15
2018-04-08T01:37:18.496Z,14.23
2018-04-08T01:39:50.942Z,14.30
2018-04-08T01:42:20.158Z,14.32
2018-04-08T01:44:49.168Z,14.28
2018-04-08T01:47:24.196Z,14.32
2018-04-08T01:49:53.236Z,14.27
2018-04-08T01:52:22.287Z,14.29
2018-04-08T01:54:52.291Z,14.24
2018-04-08T01:57:21.454Z,14.21
2018-04-08T01:59:54.807Z,14.18
2018-04-08T02:02:23.939Z,14.09
2018-04-08T02:04:53.953Z,14.04
2018-04-08T02:07:23.217Z,13.93
2018-04-08T02:09:53.890Z,13.97
2018-04-08T02:12:22.840Z,13.94
2018-04-08T02:14:52.148Z,13.95
2018-04-08T02:17:22.266Z,13.90
2018-04-08T02:19:51.262Z,13.85
2018-04-08T02:22:23.553Z,13.85
2018-04-08T02:24:52.525Z,13.89
2018-04-08T02:27:21.723Z,13.89
2018-04-08T02:32:27.294Z,13.82
2018-04-08T02:34:57.480Z,13.82
2018-04-08T02:37:28.243Z,13.76
2018-04-08T02:39:58.872Z,13.72
2018-04-08T02:42:27.935Z,13.66
2018-04-08T02:44:56.858Z,13.63
2018-04-08T02:47:25.968Z,13.64
2018-04-08T02:49:54.938Z,13.58
2018-04-08T02:52:25.005Z,13.50
2018-04-08T02:54:54.079Z,13.47
2018-04-08T02:57:23.412Z,13.44
2018-04-08T02:59:55.128Z,13.39
2018-04-08T03:02:24.972Z,13.29
2018-04-08T03:04:57.973Z,13.27
2018-04-08T03:07:27.039Z,13.17
2018-04-08T03:09:57.905Z,13.09
2018-04-08T03:15:01.896Z,12.94
2018-04-08T03:17:31.739Z,12.90
2018-04-08T03:20:03.263Z,12.93
2018-04-08T03:22:33.190Z,12.99
2018-04-08T03:25:03.157Z,12.98
2018-04-08T03:30:08.351Z,12.99
2018-04-08T03:32:37.349Z,12.90
2018-04-08T03:35:07.479Z,12.85
2018-04-08T03:37:37.629Z,12.88
2018-04-08T03:40:10.172Z,12.88
2018-04-08T03:42:44.569Z,12.83
2018-04-08T03:45:13.691Z,12.76
2018-04-08T03:47:43.409Z,12.63
2018-04-08T03:50:14.179Z,12.62
2018-04-08T03:52:43.275Z,12.58
2018-04-08T03:55:12.358Z,12.62
2018-04-08T03:57:41.552Z,12.54
2018-04-08T04:00:10.762Z,12.64
2018-04-08T04:02:39.852Z,12.65
2018-04-08T04:05:08.850Z,12.72
2018-04-08T04:07:38.098Z,12.83
2018-04-08T04:10:07.209Z,12.87
2018-04-08T04:12:37.180Z,12.89
2018-04-08T04:15:06.428Z,12.97
2018-04-08T04:17:36.341Z,13.08
2018-04-08T04:20:20.148Z,13.22
2018-04-08T04:23:00.852Z,13.33
2018-04-08T04:28:35.082Z,13.88
2018-04-08T04:31:08.321Z,13.90
2018-04-08T04:33:45.172Z,13.73
2018-04-08T04:36:15.228Z,13.74
2018-04-08T04:38:45.042Z,13.78
2018-04-08T04:41:14.013Z,14.04
2018-04-08T04:43:43.422Z,14.17
2018-04-08T04:46:12.629Z,14.23
2018-04-08T04:48:42.652Z,14.44
2018-04-08T04:51:13.473Z,14.64
2018-04-08T04:53:42.680Z,14.92
2018-04-08T04:56:11.777Z,14.87
2018-04-08T04:58:41.665Z,14.71
2018-04-08T05:01:11.593Z,14.70
2018-04-08T05:03:43.205Z,14.74
2018-04-08T05:06:12.194Z,14.77
2018-04-08T05:08:41.853Z,14.89
2018-04-08T05:11:10.950Z,15.01
2018-04-08T05:13:40.164Z,14.87
2018-04-08T05:16:09.084Z,14.89
2018-04-08T05:18:39.838Z,14.97
2018-04-08T05:21:08.955Z,15.09
2018-04-08T05:23:38.200Z,15.05
2018-04-08T05:28:41.183Z,15.15
2018-04-08T05:31:10.245Z,15.39
2018-04-08T05:33:42.367Z,15.50
2018-04-08T05:36:12.543Z,15.62
2018-04-08T05:38:41.716Z,16.40
2018-04-08T05:41:12.040Z,16.90
2018-04-08T05:43:42.190Z,17.16
2018-04-08T05:46:11.098Z,17.38
2018-04-08T05:51:15.078Z,17.81
2018-04-08T05:53:44.223Z,16.98
2018-04-08T05:56:15.199Z,17.04
2018-04-08T05:58:44.928Z,16.84
2018-04-08T06:01:14.138Z,16.92
2018-04-08T06:03:46.217Z,17.02
2018-04-08T06:06:15.396Z,17.01
2018-04-08T06:08:44.383Z,17.68
2018-04-08T06:11:14.332Z,17.22
2018-04-08T06:13:43.402Z,16.92
2018-04-08T06:16:12.500Z,17.15
2018-04-08T06:18:41.645Z,17.22
2018-04-08T06:21:10.629Z,17.36
2018-04-08T06:23:39.583Z,17.05
2018-04-08T06:26:11.243Z,17.43
2018-04-08T06:28:40.260Z,16.84
2018-04-08T06:31:09.429Z,17.22
2018-04-08T06:36:13.474Z,16.68
2018-04-08T06:38:42.825Z,17.13
2018-04-08T06:41:14.888Z,17.97
2018-04-08T06:43:44.123Z,18.23
2018-04-08T06:46:13.815Z,17.52
2018-04-08T06:48:45.279Z,18.41
2018-04-08T06:51:15.202Z,18.34
2018-04-08T06:53:45.335Z,18.38
2018-04-08T06:56:15.652Z,18.48
2018-04-08T06:58:44.645Z,18.42
2018-04-08T07:01:14.559Z,17.93
2018-04-08T07:06:21.493Z,18.64
2018-04-08T07:08:51.513Z,18.49
2018-04-08T07:11:20.504Z,18.50
2018-04-08T07:13:50.468Z,18.80
2018-04-08T07:16:19.457Z,19.15
2018-04-08T07:18:49.138Z,18.18
2018-04-08T07:21:18.984Z,17.62
2018-04-08T07:23:48.032Z,17.49
2018-04-08T07:26:17.320Z,17.35
2018-04-08T07:28:54.461Z,16.99
2018-04-08T07:31:25.335Z,16.51
2018-04-08T07:33:55.146Z,16.40
2018-04-08T07:36:25.927Z,16.66
2018-04-08T07:38:55.622Z,16.64
2018-04-08T07:41:25.705Z,16.52
2018-04-08T07:43:56.007Z,16.62
2018-04-08T07:46:25.306Z,16.79
2018-04-08T07:48:54.410Z,16.95
2018-04-08T07:51:25.909Z,17.04
2018-04-08T07:53:55.202Z,17.14
2018-04-08T07:56:25.201Z,17.25
2018-04-08T07:58:55.038Z,17.19
2018-04-08T08:01:24.102Z,17.29
2018-04-08T08:03:54.039Z,17.28
2018-04-08T08:08:58.113Z,17.29
2018-04-08T08:11:29.098Z,17.52
2018-04-08T08:13:58.388Z,17.42
2018-04-08T08:16:27.931Z,17.43
2018-04-08T08:18:56.799Z,17.53
2018-04-08T08:21:27.713Z,17.61
2018-04-08T08:23:57.243Z,17.64
2018-04-08T08:26:26.139Z,17.62
2018-04-08T08:28:56.068Z,17.80
2018-04-08T08:31:25.192Z,17.80
2018-04-08T08:33:55.186Z,17.84
2018-04-08T08:36:26.677Z,17.85
2018-04-08T08:38:55.651Z,18.09
2018-04-08T08:41:24.814Z,18.05
2018-04-08T08:43:53.902Z,18.13
2018-04-08T08:46:23.851Z,18.16
2018-04-08T08:48:52.966Z,18.28
2018-04-08T08:54:00.220Z,18.48
2018-04-08T08:56:29.392Z,18.37
2018-04-08T08:58:58.307Z,18.48
2018-04-08T09:01:29.115Z,18.34
2018-04-08T09:03:59.009Z,18.23
2018-04-08T09:06:28.126Z,18.25
2018-04-08T09:09:00.746Z,18.17
2018-04-08T09:11:29.986Z,18.39
2018-04-08T09:14:01.626Z,18.55
2018-04-08T09:16:30.794Z,18.55
2018-04-08T09:19:11.876Z,18.50
2018-04-08T09:21:52.740Z,18.53
2018-04-08T09:26:59.951Z,18.30
2018-04-08T09:29:29.703Z,18.50
2018-04-08T09:31:58.772Z,18.27
2018-04-08T09:34:28.057Z,18.18
2018-04-08T09:36:58.309Z,18.20
2018-04-08T09:39:27.540Z,18.31
2018-04-08T09:41:56.729Z,18.37
2018-04-08T09:44:25.660Z,18.29
2018-04-08T09:46:55.211Z,18.16
2018-04-08T09:49:24.055Z,17.98
2018-04-08T09:51:53.014Z,17.84
2018-04-08T09:54:22.359Z,18.00
2018-04-08T09:56:52.535Z,17.97
2018-04-08T09:59:22.521Z,17.85
2018-04-08T10:04:25.564Z,17.81
2018-04-08T10:06:54.853Z,17.69
2018-04-08T10:09:25.737Z,17.73
2018-04-08T10:11:58.396Z,17.75
2018-04-08T10:14:27.358Z,17.85
2018-04-08T10:16:56.242Z,17.92
2018-04-08T10:19:25.157Z,18.25
2018-04-08T10:21:54.168Z,18.29
2018-04-08T10:24:23.083Z,18.32
2018-04-08T10:26:51.911Z,18.11
2018-04-08T10:29:22.596Z,18.19
2018-04-08T10:31:53.855Z,18.47
2018-04-08T10:34:24.292Z,18.62
2018-04-08T10:36:53.242Z,18.56
2018-04-08T10:39:22.329Z,18.62
2018-04-08T10:41:52.091Z,18.55
2018-04-08T10:44:21.504Z,18.48
2018-04-08T10:46:50.474Z,18.36
2018-04-08T10:49:21.307Z,18.45
2018-04-08T10:51:50.645Z,18.57
2018-04-08T10:54:19.945Z,18.57
2018-04-08T10:56:50.749Z,18.22
2018-04-08T10:59:20.614Z,18.41
2018-04-08T11:01:51.665Z,18.45
2018-04-08T11:04:31.985Z,18.39
2018-04-08T11:07:03.458Z,18.19
2018-04-08T11:09:32.648Z,18.34
2018-04-08T11:12:01.768Z,18.35
2018-04-08T11:14:31.702Z,18.48
2018-04-08T11:17:02.503Z,18.59
2018-04-08T11:19:31.440Z,18.83
2018-04-08T11:22:01.287Z,18.88
2018-04-08T11:24:30.234Z,18.81
2018-04-08T11:26:59.415Z,18.88
2018-04-08T11:29:28.762Z,18.81
2018-04-08T11:31:58.796Z,18.93
2018-04-08T11:34:27.830Z,19.01
2018-04-08T11:36:58.797Z,19.19
2018-04-08T11:39:27.974Z,19.06
2018-04-08T11:41:57.380Z,18.85
2018-04-08T11:44:28.337Z,18.94
2018-04-08T11:46:57.818Z,19.14
2018-04-08T11:49:27.022Z,19.18
2018-04-08T11:51:59.700Z,19.26
2018-04-08T11:54:29.556Z,18.62
2018-04-08T11:56:58.420Z,18.35
2018-04-08T11:59:27.711Z,18.40
2018-04-08T12:01:57.112Z,18.38
2018-04-08T12:04:26.301Z,18.20
2018-04-08T12:06:55.510Z,18.05
2018-04-08T12:09:25.424Z,17.70
2018-04-08T12:11:55.651Z,17.80
2018-04-08T12:14:24.642Z,17.80
2018-04-08T12:16:55.208Z,17.72
2018-04-08T12:19:24.390Z,17.90
2018-04-08T12:21:54.286Z,18.04
2018-04-08T12:24:23.251Z,18.32
2018-04-08T12:26:55.484Z,18.43
2018-04-08T12:29:25.612Z,18.45
2018-04-08T12:31:54.806Z,18.40
2018-04-08T12:34:26.439Z,17.74
2018-04-08T12:36:55.444Z,16.90
2018-04-08T12:39:24.408Z,16.60
2018-04-08T12:41:53.570Z,16.58
2018-04-08T12:44:22.419Z,16.55
2018-04-08T12:46:51.398Z,16.47
2018-04-08T12:49:21.503Z,16.61
2018-04-08T12:51:50.442Z,16.80
2018-04-08T12:54:20.570Z,16.99
2018-04-08T12:56:50.298Z,17.02
2018-04-08T12:59:19.337Z,17.08
2018-04-08T13:01:48.450Z,17.28
2018-04-08T13:04:24.533Z,17.30
2018-04-08T13:06:53.787Z,17.55
2018-04-08T13:09:22.789Z,17.74
2018-04-08T13:11:53.155Z,17.90
2018-04-08T13:14:22.456Z,17.92
2018-04-08T13:16:52.445Z,18.01
2018-04-08T13:19:21.527Z,18.20
2018-04-08T13:21:52.160Z,18.42
2018-04-08T13:24:22.016Z,18.47
2018-04-08T13:29:25.890Z,18.36
2018-04-08T13:31:55.676Z,18.30
2018-04-08T13:34:27.433Z,18.06
2018-04-08T13:36:57.412Z,18.04
2018-04-08T13:39:26.445Z,18.07
2018-04-08T13:41:56.241Z,17.94
2018-04-08T13:44:25.226Z,17.94
2018-04-08T13:46:54.864Z,17.73
2018-04-08T13:49:25.452Z,17.86
2018-04-08T13:51:55.349Z,17.84
2018-04-08T13:54:24.470Z,17.80
2018-04-08T13:56:54.455Z,17.65
2018-04-08T13:59:24.484Z,17.59
2018-04-08T14:01:53.671Z,17.51
2018-04-08T14:04:25.124Z,17.60
2018-04-08T14:06:55.591Z,17.50
2018-04-08T14:09:24.698Z,17.46
2018-04-08T14:11:54.768Z,17.44
2018-04-08T14:14:24.388Z,17.28
2018-04-08T14:16:53.884Z,17.30
2018-04-08T14:19:23.014Z,17.23
2018-04-08T14:21:51.877Z,17.27
2018-04-08T14:24:21.686Z,17.34
2018-04-08T14:26:51.014Z,17.34
2018-04-08T14:29:20.394Z,17.23
2018-04-08T14:31:49.273Z,17.22
2018-04-08T14:34:19.408Z,17.25
2018-04-08T14:36:48.402Z,17.25
2018-04-08T14:39:17.296Z,17.23
2018-04-08T14:41:48.197Z,17.28
2018-04-08T14:44:17.057Z,17.25
2018-04-08T14:46:45.949Z,17.17
2018-04-08T14:49:14.835Z,17.27
2018-04-08T14:51:43.732Z,17.10
2018-04-08T14:54:12.592Z,17.15
2018-04-08T14:56:41.539Z,17.21
2018-04-08T14:59:10.499Z,17.18
2018-04-08T15:01:46.661Z,17.19
2018-04-08T15:04:08.568Z,17.09
2018-04-08T15:06:37.622Z,17.13
2018-04-08T15:09:10.549Z,17.05
2018-04-08T15:11:40.299Z,17.00
2018-04-08T15:14:09.970Z,17.06
2018-04-08T15:16:41.750Z,17.07
2018-04-08T15:19:11.161Z,17.00
2018-04-08T15:21:41.352Z,17.01
2018-04-08T15:24:10.708Z,16.92
2018-04-08T15:26:39.852Z,16.89
2018-04-08T15:29:08.963Z,16.87
2018-04-08T15:34:13.183Z,16.72
2018-04-08T15:36:42.105Z,16.71
2018-04-08T15:39:12.294Z,16.74
2018-04-08T15:41:42.272Z,16.67
2018-04-08T15:44:11.681Z,16.63
2018-04-08T15:46:42.555Z,16.56
2018-04-08T15:49:11.858Z,16.56
2018-04-08T15:51:42.571Z,16.45
2018-04-08T15:54:12.396Z,16.47
2018-04-08T15:56:41.949Z,16.35
2018-04-08T15:59:11.349Z,16.18
2018-04-08T16:01:43.378Z,16.06
2018-04-08T16:04:13.206Z,15.98
2018-04-08T16:06:43.110Z,15.98
2018-04-08T16:09:13.354Z,15.94
2018-04-08T16:11:42.492Z,15.87
2018-04-08T16:14:11.581Z,15.87
2018-04-08T16:16:41.493Z,15.79
2018-04-08T16:19:10.587Z,15.68
2018-04-08T16:21:39.758Z,15.66
2018-04-08T16:24:10.507Z,15.58
2018-04-08T16:26:41.362Z,15.49
2018-04-08T16:29:10.584Z,15.46
2018-04-08T16:31:41.535Z,15.45
2018-04-08T16:34:11.080Z,15.38
2018-04-08T16:36:39.988Z,15.31
2018-04-08T16:39:10.202Z,15.19
2018-04-08T16:41:40.162Z,15.10
2018-04-08T16:44:09.880Z,14.99
2018-04-08T16:46:39.760Z,14.98
2018-04-08T16:49:08.872Z,14.98
2018-04-08T16:51:38.119Z,14.94
2018-04-08T16:54:08.284Z,14.94
2018-04-08T16:56:37.283Z,14.87
2018-04-08T16:59:06.274Z,14.87
2018-04-08T17:01:38.987Z,14.92
2018-04-08T17:04:08.223Z,14.88
2018-04-08T17:06:37.309Z,14.88
2018-04-08T17:09:10.296Z,14.79
2018-04-08T17:11:39.385Z,14.73
2018-04-08T17:14:09.244Z,14.71
2018-04-08T17:16:44.546Z,14.69
2018-04-08T17:19:14.737Z,14.59
2018-04-08T17:21:43.913Z,14.56
2018-04-08T17:24:16.508Z,14.50
2018-04-08T17:26:46.113Z,14.52
2018-04-08T17:29:15.310Z,14.48
2018-04-08T17:31:45.183Z,14.43
2018-04-08T17:34:15.614Z,14.41
2018-04-08T17:36:44.776Z,14.37
2018-04-08T17:39:13.988Z,14.23
2018-04-08T17:41:43.880Z,14.20
2018-04-08T17:44:12.918Z,14.13
2018-04-08T17:46:44.512Z,14.04
2018-04-08T17:49:13.557Z,14.06
2018-04-08T17:51:43.001Z,14.03
2018-04-08T17:54:12.868Z,13.97
2018-04-08T17:56:41.797Z,14.01
2018-04-08T17:59:10.999Z,13.98
2018-04-08T18:01:41.701Z,13.93
2018-04-08T18:04:11.714Z,13.97
2018-04-08T18:06:41.639Z,13.82
2018-04-08T18:09:13.595Z,13.80
2018-04-08T18:11:42.706Z,13.73
2018-04-08T18:14:12.477Z,13.68
2018-04-08T18:16:44.333Z,13.57
2018-04-08T18:19:13.490Z,13.46
2018-04-08T18:21:43.063Z,13.42
2018-04-08T18:24:12.252Z,13.34
2018-04-08T18:26:41.744Z,13.30
2018-04-08T18:29:10.946Z,13.25
2018-04-08T18:31:41.861Z,13.25
2018-04-08T18:34:11.607Z,13.24
2018-04-08T18:36:40.739Z,13.26
2018-04-08T18:39:09.929Z,13.16
2018-04-08T18:41:38.917Z,13.07
2018-04-08T18:44:08.093Z,12.98
2018-04-08T18:46:38.688Z,12.94
2018-04-08T18:49:07.851Z,12.91
2018-04-08T18:51:36.892Z,12.88
2018-04-08T18:54:07.127Z,12.86
2018-04-08T18:56:36.432Z,12.85
2018-04-08T18:59:05.619Z,12.86
2018-04-08T19:04:10.678Z,12.95
2018-04-08T19:06:42.443Z,12.93
2018-04-08T19:09:11.578Z,12.90
2018-04-08T19:11:40.717Z,13.04
2018-04-08T19:14:11.515Z,13.16
2018-04-08T19:16:43.236Z,13.20
2018-04-08T19:19:13.147Z,13.28
2018-04-08T19:21:43.176Z,13.42
2018-04-08T19:24:14.014Z,13.53
2018-04-08T19:26:43.300Z,13.56
2018-04-08T19:29:13.353Z,13.57
2018-04-08T19:31:43.342Z,13.59
2018-04-08T19:34:12.537Z,13.62
2018-04-08T19:36:41.565Z,13.60
2018-04-08T19:39:13.245Z,13.56
2018-04-08T19:41:47.525Z,13.63
2018-04-08T19:44:21.176Z,13.63
2018-04-08T19:46:50.251Z,13.63
2018-04-08T19:49:25.103Z,13.68
2018-04-08T19:51:54.074Z,13.75
2018-04-08T19:54:23.205Z,13.79
2018-04-08T19:56:53.155Z,13.76
2018-04-08T19:59:22.355Z,13.75
2018-04-08T20:01:52.103Z,13.73
2018-04-08T20:04:22.777Z,13.72
2018-04-08T20:06:51.940Z,13.72
2018-04-08T20:09:21.190Z,13.58
2018-04-08T20:11:53.253Z,13.61
2018-04-08T20:14:22.593Z,13.57
2018-04-08T20:16:51.693Z,13.56
2018-04-08T20:21:56.329Z,13.40
2018-04-08T20:24:26.110Z,13.36
2018-04-08T20:26:55.237Z,13.30
2018-04-08T20:29:24.207Z,13.23
2018-04-08T20:31:54.060Z,13.19
2018-04-08T20:36:58.698Z,13.15
2018-04-08T20:39:27.999Z,13.16
2018-04-08T20:41:57.099Z,13.16
2018-04-08T20:44:26.320Z,13.10
2018-04-08T20:46:55.394Z,13.15
2018-04-08T20:49:26.324Z,13.24
2018-04-08T20:51:55.641Z,13.27
2018-04-08T20:54:24.785Z,13.33
2018-04-08T20:56:54.862Z,13.37
2018-04-08T20:59:23.953Z,13.39
2018-04-08T21:01:54.232Z,13.34
2018-04-08T21:04:23.277Z,13.31
2018-04-08T21:06:52.171Z,13.31
2018-04-08T21:09:24.137Z,13.38
2018-04-08T21:11:53.271Z,13.39
2018-04-08T21:14:22.236Z,13.40
2018-04-08T21:16:53.511Z,13.48
2018-04-08T21:19:23.570Z,13.49
2018-04-08T21:21:54.430Z,13.41
2018-04-08T21:24:24.949Z,13.40
2018-04-08T21:26:54.052Z,13.34
2018-04-08T21:29:24.968Z,13.21
2018-04-08T21:31:53.985Z,13.29
2018-04-08T21:34:23.097Z,13.24
2018-04-08T21:36:54.948Z,13.16
2018-04-08T21:39:24.044Z,13.05
2018-04-08T21:41:53.240Z,12.98
2018-04-08T21:44:24.039Z,12.98
2018-04-08T21:46:53.170Z,12.89
2018-04-08T21:49:22.702Z,12.81
2018-04-08T21:51:55.452Z,12.75
2018-04-08T21:54:25.611Z,12.67
2018-04-08T21:56:55.137Z,12.51
2018-04-08T21:59:24.350Z,12.43
2018-04-08T22:01:54.170Z,12.36
2018-04-08T22:04:23.185Z,12.30
2018-04-08T22:06:55.112Z,12.23
2018-04-08T22:09:25.839Z,12.23
2018-04-08T22:11:55.826Z,12.21
2018-04-08T22:14:25.961Z,12.22
2018-04-08T22:17:00.251Z,12.21
2018-04-08T22:19:30.368Z,12.16
2018-04-08T22:22:01.036Z,12.18
2018-04-08T22:24:30.813Z,12.18
2018-04-08T22:27:00.375Z,12.17
2018-04-08T22:29:30.000Z,12.17
2018-04-08T22:31:59.087Z,12.11
2018-04-08T22:37:05.932Z,12.13
2018-04-08T22:39:35.842Z,12.15
2018-04-08T22:44:39.460Z,12.17
2018-04-08T22:47:08.866Z,12.19
2018-04-08T22:49:38.062Z,12.25
2018-04-08T22:52:09.767Z,12.32
2018-04-08T22:54:39.060Z,12.40
2018-04-08T22:57:08.165Z,12.44
2018-04-08T22:59:37.424Z,12.50
2018-04-08T23:02:06.624Z,12.51
2018-04-08T23:04:37.941Z,12.47
2018-04-08T23:07:10.355Z,12.34
2018-04-08T23:09:39.788Z,12.32
2018-04-08T23:12:08.943Z,12.22
2018-04-08T23:17:12.625Z,12.06
2018-04-08T23:19:43.230Z,12.00
2018-04-08T23:22:12.199Z,11.93
2018-04-08T23:24:41.295Z,11.91
2018-04-08T23:27:10.333Z,11.91
2018-04-08T23:29:39.763Z,11.84
2018-04-08T23:32:09.028Z,11.82
2018-04-08T23:34:38.008Z,11.77
2018-04-08T23:37:08.050Z,11.86
2018-04-08T23:39:37.957Z,11.81
2018-04-08T23:42:07.217Z,11.86
2018-04-08T23:44:36.516Z,11.83
2018-04-08T23:47:07.907Z,11.82
2018-04-08T23:49:37.992Z,11.82
2018-04-08T23:52:08.006Z,11.71
2018-04-08T23:54:38.598Z,11.71
2018-04-08T23:57:07.875Z,11.73
2018-04-08T23:59:36.931Z,11.81
